Impacts TAF Board
For situational awareness. Not to be used for flight planning purposes.
IDs:

KCXO - Conroe/Executive Arp, TX, US

Issued at 0523 UTC 18 Jan 2022
Updated at 1025 UTC 18 Jan 2022
Potential Impact None Slight Moderate High
Time0953Z 18/11Z 18/12Z 18/13Z 18/14Z 18/15Z 18/16Z 18/17Z 18/18Z 18/19Z 18/20Z 18/21Z 18/22Z 18/23Z>>
Type OBS PRVL PRVL PRVL PRVL PRVL PRVL PRVL PRVL PRVL PRVL PRVL PRVL PRVL
VIS 10 >6 >6 >6 >6 >6 >6 >6 >6 >6 >6 >6 >6 >6
CIG -- -- -- -- -- -- -- -- -- -- -- -- -- --
Cover CLR SKC SKC SKC SKC SKC SKC SCT SCT SCT SCT SCT SCT SCT
FltCat VFR VFR VFR VFR VFR VFR VFR VFR VFR VFR VFR VFR VFR VFR
WX -- -- -- -- -- -- -- -- -- -- -- -- -- --
WDir VRB VRB VRB VRB VRB VRB VRB 170 170 170 170 170 170 170
WSpd 0 0 0 0 0 0 0 10 10 10 10 10 10 10
WGst -- -- -- -- -- -- -- -- -- -- -- -- -- --
WSHgt -- -- -- -- -- -- -- -- -- -- -- -- -- --
WSDir -- -- -- -- -- -- -- -- -- -- -- -- -- --
WSSpd -- -- -- -- -- -- -- -- -- -- -- -- -- --
Raw TAF
KCXO 180523Z 1806/1906 00000KT P6SM SKC
  FM181700 17010KT P6SM FEW035 SCT200
  FM190200 18006KT P6SM BKN250


Raw METAR
KCXO 180953Z AUTO 00000KT 10SM CLR 01/01 A3008 RMK AO2 SLP185 T00110006
KCXO 180853Z AUTO 00000KT 10SM CLR 02/01 A3009 RMK AO2 SLP188 T00170011 58007
KCXO 180753Z AUTO 00000KT 10SM CLR 03/02 A3010 RMK AO2 SLP191 T00280017

METAR Board
Radar Display
Forecast Discussion
For situational awareness. Not to be used for flight planning purposes.